Etusivu
METAR-TAF:

METAR-TAF

Lentoasemat :

Mitiga International Airport

Tripoli, Libya

Leveyspiiri: 32-54N, Pituuspiiri: 13-17E, korkeus merenpinnasta: 11 m

METAR: puuttuu

Aika: 03:57 (01:57 UTC)

Sääennuste

Tämä raportti tehtiin 14 tuntia ja 57 minuuttia sitten, kello 11.00 UTC
Ennuste voimassa 05. päivästä klo 12 UTC - 06. päivään klo 12 UTC
Tuuli 15 kn pohjoisen/luoteesta
Näkyvyys: 7000 m
Tulossa
05. päivästä klo 20 UTC - 05. päivään klo 22 UTC
Tuuli 2 kn eri suunnista

TAF: HLLM 051100Z 0512/0612 34015KT 7000 NSC BECMG 0520/0522 VRB02KT

Säähavainnot ja -ennusteet yli 4000 lentoasemalta (METAR- ja TAF-raportit).

Käytössä olevat sääasemat on merkitty karttaan keltaisilla ja punaisilla pisteillä.

Aseta hiiri pisteen päälle nähdäksesi sääaseman nimen.

Klikkaa sitten nähdäksesi säähavainnot ja -ennusteet.

Kartan vaihtaminen: klikkaa mustalla rastilla varustettuja vihreitä pisteitä, niin voit zoomata sisään; viivalla varustettua vihreää pistettä, niin voit zoomata ulos tai vihreitä nuolia, niin pääset viereisille kartoille.


METAR-TAF: